createdAt,value
2023-01-28T00:01:27.678Z,102073.53
2023-01-28T00:03:54.873Z,102077.78
2023-01-28T00:06:21.803Z,102082.94
2023-01-28T00:08:49.228Z,102082.91
2023-01-28T00:11:16.141Z,102082.94
2023-01-28T00:13:43.238Z,102075.25
2023-01-28T00:16:10.619Z,102081.22
2023-01-28T00:18:38.254Z,102084.69
2023-01-28T00:21:13.734Z,102087.22
2023-01-28T00:23:43.129Z,102086.38
2023-01-28T00:26:15.047Z,102094.13
2023-01-28T00:28:43.465Z,102095.81
2023-01-28T00:31:19.255Z,102091.53
2023-01-28T00:33:49.378Z,102096.66
2023-01-28T00:36:18.975Z,102097.47
2023-01-28T00:39:00.221Z,102093.19
2023-01-28T00:41:30.101Z,102092.31
2023-01-28T00:43:57.663Z,102091.44
2023-01-28T00:46:26.485Z,102088.06
2023-01-28T00:48:53.777Z,102095.75
2023-01-28T00:51:21.760Z,102095.75
2023-01-28T00:53:49.036Z,102100.00
2023-01-28T00:56:18.303Z,102095.69
2023-01-28T00:58:45.853Z,102101.66
2023-01-28T01:01:26.620Z,102102.59
2023-01-28T01:04:02.394Z,102100.09
2023-01-28T01:06:37.341Z,102099.22
2023-01-28T01:09:09.140Z,102101.81
2023-01-28T01:11:36.739Z,102097.53
2023-01-28T01:14:05.275Z,102100.06
2023-01-28T01:16:33.634Z,102094.13
2023-01-28T01:19:01.060Z,102098.34
2023-01-28T01:21:30.511Z,102094.94
2023-01-28T01:23:57.612Z,102100.03
2023-01-28T01:26:27.345Z,102098.28
2023-01-28T01:28:54.429Z,102096.53
2023-01-28T01:31:23.304Z,102094.78
2023-01-28T01:33:52.484Z,102095.56
2023-01-28T01:36:21.884Z,102099.72
2023-01-28T01:38:56.251Z,102101.38
2023-01-28T01:41:30.940Z,102104.78
2023-01-28T01:44:00.620Z,102098.72
2023-01-28T01:46:37.954Z,102108.97
2023-01-28T01:49:27.034Z,102103.06
2023-01-28T01:52:11.178Z,102109.06
2023-01-28T01:54:41.409Z,102109.97
2023-01-28T01:57:14.733Z,102109.06
2023-01-28T01:59:43.847Z,102111.63
2023-01-28T02:02:12.868Z,102110.72
2023-01-28T02:04:44.723Z,102108.03
2023-01-28T02:07:15.986Z,102111.56
2023-01-28T02:09:43.195Z,102113.31
2023-01-28T02:12:26.499Z,102112.41
2023-01-28T02:15:01.423Z,102103.94
2023-01-28T02:17:29.206Z,102103.06
2023-01-28T02:20:06.889Z,102099.56
2023-01-28T02:23:01.781Z,102108.97
2023-01-28T02:26:41.128Z,102103.13
2023-01-28T02:29:34.665Z,102111.69
2023-01-28T02:32:24.362Z,102103.06
2023-01-28T02:35:35.597Z,102101.41
2023-01-28T02:38:15.424Z,102109.75
2023-01-28T02:41:02.460Z,102108.88
2023-01-28T02:43:47.060Z,102117.53
2023-01-28T02:46:54.067Z,102114.97
2023-01-28T02:49:40.556Z,102114.97
2023-01-28T02:53:08.920Z,102116.66
2023-01-28T02:55:55.257Z,102118.47
2023-01-28T02:58:46.076Z,102117.53
2023-01-28T03:01:43.685Z,102114.91
2023-01-28T03:04:43.539Z,102120.91
2023-01-28T03:07:13.649Z,102113.94
2023-01-28T03:09:45.799Z,102111.44
2023-01-28T03:12:42.300Z,102115.66
2023-01-28T03:15:35.486Z,102109.53
2023-01-28T03:18:46.380Z,102107.81
2023-01-28T03:21:59.133Z,102119.81
2023-01-28T03:24:52.551Z,102105.13
2023-01-28T03:27:54.770Z,102106.88
2023-01-28T03:30:50.673Z,102115.31
2023-01-28T03:33:37.083Z,102114.50
2023-01-28T03:36:25.443Z,102111.25
2023-01-28T03:38:52.700Z,102119.75
2023-01-28T03:41:26.774Z,102111.13
2023-01-28T03:43:54.784Z,102107.97
2023-01-28T03:46:22.433Z,102107.94
2023-01-28T03:48:49.617Z,102113.84
2023-01-28T03:51:17.883Z,102114.66
2023-01-28T03:53:44.890Z,102118.75
2023-01-28T03:56:18.570Z,102112.63
2023-01-28T03:58:56.941Z,102110.78
2023-01-28T04:01:24.473Z,102108.22
2023-01-28T04:03:51.747Z,102113.28
2023-01-28T04:06:18.797Z,102113.47
2023-01-28T04:08:48.943Z,102116.78
2023-01-28T04:11:16.316Z,102107.47
2023-01-28T04:13:44.399Z,102106.66
2023-01-28T04:16:14.182Z,102109.94
2023-01-28T04:18:41.407Z,102109.94
2023-01-28T04:21:08.490Z,102108.09
2023-01-28T04:23:38.544Z,102110.59
2023-01-28T04:26:05.540Z,102102.06
2023-01-28T04:28:32.685Z,102104.53
2023-01-28T04:30:59.839Z,102107.97
2023-01-28T04:33:26.962Z,102103.75
2023-01-28T04:35:54.083Z,102111.53
2023-01-28T04:38:21.233Z,102108.91
2023-01-28T04:40:53.384Z,102105.50
2023-01-28T04:43:20.925Z,102100.66
2023-01-28T04:45:49.279Z,102107.28
2023-01-28T04:48:17.628Z,102106.34
2023-01-28T04:50:45.814Z,102103.66
2023-01-28T04:53:13.292Z,102103.78
2023-01-28T04:55:40.629Z,102110.66
2023-01-28T04:58:08.169Z,102103.09
2023-01-28T05:00:35.239Z,102100.59
2023-01-28T05:03:02.532Z,102105.75
2023-01-28T05:05:32.268Z,102104.81
2023-01-28T05:07:59.787Z,102103.97
2023-01-28T05:10:27.783Z,102108.22
2023-01-28T05:12:55.103Z,102117.63
2023-01-28T05:15:22.627Z,102122.91
2023-01-28T05:17:49.596Z,102124.53
2023-01-28T05:20:17.818Z,102127.84
2023-01-28T05:22:44.836Z,102130.44
2023-01-28T05:25:11.982Z,102135.53
2023-01-28T05:27:39.420Z,102133.97
2023-01-28T05:30:07.940Z,102130.47
2023-01-28T05:32:35.132Z,102134.91
2023-01-28T05:35:02.193Z,102132.22
2023-01-28T05:37:29.236Z,102130.41
2023-01-28T05:39:56.433Z,102131.28
2023-01-28T05:42:23.628Z,102127.72
2023-01-28T05:44:50.734Z,102130.28
2023-01-28T05:47:17.872Z,102127.03
2023-01-28T05:49:46.392Z,102130.56
2023-01-28T05:52:13.614Z,102126.38
2023-01-28T05:54:40.689Z,102128.72
2023-01-28T05:57:07.708Z,102132.16
2023-01-28T05:59:34.749Z,102134.22
2023-01-28T06:02:01.889Z,102128.81
2023-01-28T06:04:28.922Z,102123.56
2023-01-28T06:06:56.013Z,102130.38
2023-01-28T06:09:23.049Z,102136.22
2023-01-28T06:11:50.932Z,102137.97
2023-01-28T06:14:18.061Z,102130.34
2023-01-28T06:16:45.520Z,102136.44
2023-01-28T06:19:12.686Z,102133.09
2023-01-28T06:21:40.047Z,102132.97
2023-01-28T06:24:07.417Z,102140.56
2023-01-28T06:26:34.364Z,102147.44
2023-01-28T06:29:01.558Z,102150.94
2023-01-28T06:31:28.544Z,102144.78
2023-01-28T06:33:55.449Z,102149.00
2023-01-28T06:36:22.517Z,102154.19
2023-01-28T06:38:49.465Z,102147.31
2023-01-28T06:41:16.391Z,102144.59
2023-01-28T06:43:43.334Z,102136.38
2023-01-28T06:46:10.373Z,102144.81
2023-01-28T06:48:37.343Z,102147.53
2023-01-28T06:51:04.835Z,102143.34
2023-01-28T06:53:32.119Z,102142.59
2023-01-28T06:55:59.441Z,102150.19
2023-01-28T06:58:26.407Z,102152.56
2023-01-28T07:00:54.047Z,102150.84
2023-01-28T07:03:21.148Z,102158.47
2023-01-28T07:05:48.108Z,102159.56
2023-01-28T07:08:15.188Z,102151.72
2023-01-28T07:10:42.247Z,102163.53
2023-01-28T07:13:09.319Z,102165.19
2023-01-28T07:15:36.900Z,102161.00
2023-01-28T07:18:04.197Z,102164.44
2023-01-28T07:20:31.408Z,102152.56
2023-01-28T07:22:58.336Z,102154.41
2023-01-28T07:25:25.349Z,102166.28
2023-01-28T07:27:53.997Z,102170.41
2023-01-28T07:30:22.309Z,102161.00
2023-01-28T07:32:58.493Z,102162.53
2023-01-28T07:35:27.080Z,102156.41
2023-01-28T07:38:00.291Z,102151.09
2023-01-28T07:40:29.732Z,102158.72
2023-01-28T07:42:56.908Z,102157.06
2023-01-28T07:45:25.922Z,102158.09
2023-01-28T07:47:58.896Z,102163.06
2023-01-28T07:50:26.966Z,102157.81
2023-01-28T07:52:54.420Z,102160.31
2023-01-28T07:55:21.919Z,102161.09
2023-01-28T07:57:58.281Z,102155.06
2023-01-28T08:00:29.580Z,102153.50
2023-01-28T08:03:03.699Z,102157.63
2023-01-28T08:05:48.469Z,102161.25
2023-01-28T08:08:16.649Z,102168.16
2023-01-28T08:10:44.082Z,102167.25
2023-01-28T08:13:14.064Z,102171.50
2023-01-28T08:15:41.734Z,102184.28
2023-01-28T08:18:13.264Z,102177.41
2023-01-28T08:20:43.443Z,102182.38
2023-01-28T08:23:16.233Z,102180.53
2023-01-28T08:25:43.577Z,102187.56
2023-01-28T08:28:12.061Z,102180.63
2023-01-28T08:30:40.356Z,102193.56
2023-01-28T08:33:12.853Z,102201.63
2023-01-28T08:35:40.458Z,102201.44
2023-01-28T08:38:10.352Z,102187.66
2023-01-28T08:40:37.631Z,102191.19
2023-01-28T08:43:05.722Z,102192.56
2023-01-28T08:45:33.100Z,102187.28
2023-01-28T08:48:05.346Z,102191.69
2023-01-28T08:50:37.910Z,102197.84
2023-01-28T08:53:14.303Z,102208.53
2023-01-28T08:55:41.425Z,102201.25
2023-01-28T08:58:15.075Z,102204.84
2023-01-28T09:00:46.773Z,102208.16
2023-01-28T09:03:13.793Z,102211.28
2023-01-28T09:05:40.776Z,102214.06
2023-01-28T09:08:13.571Z,102221.59
2023-01-28T09:10:42.040Z,102219.94
2023-01-28T09:13:15.912Z,102218.25
2023-01-28T09:15:43.291Z,102226.88
2023-01-28T09:18:10.772Z,102233.09
2023-01-28T09:20:38.668Z,102235.09
2023-01-28T09:23:06.155Z,102242.72
2023-01-28T09:25:34.084Z,102237.88
2023-01-28T09:28:00.976Z,102234.91
2023-01-28T09:30:28.850Z,102234.19
2023-01-28T09:32:58.297Z,102245.84
2023-01-28T09:35:25.519Z,102238.94
2023-01-28T09:37:56.463Z,102236.78
2023-01-28T09:40:43.841Z,102240.09
2023-01-28T09:43:48.947Z,102242.69
2023-01-28T09:46:18.482Z,102256.63
2023-01-28T09:48:51.982Z,102239.00
2023-01-28T09:51:40.412Z,102249.22
2023-01-28T09:54:41.020Z,102252.78
2023-01-28T09:57:48.428Z,102255.06
2023-01-28T10:00:26.491Z,102253.78
2023-01-28T10:03:08.651Z,102250.34
2023-01-28T10:05:50.908Z,102252.06
2023-01-28T10:09:26.278Z,102245.03
2023-01-28T10:12:28.342Z,102243.84
2023-01-28T10:15:29.367Z,102238.78
2023-01-28T10:18:16.898Z,102243.78
2023-01-28T10:20:55.187Z,102244.03
2023-01-28T10:23:43.509Z,102234.97
2023-01-28T10:26:24.304Z,102242.44
2023-01-28T10:28:58.224Z,102238.97
2023-01-28T10:31:39.574Z,102238.63
2023-01-28T10:34:06.675Z,102225.72
2023-01-28T10:36:34.149Z,102226.97
2023-01-28T10:39:01.131Z,102233.75
2023-01-28T10:41:28.172Z,102230.31
2023-01-28T10:43:56.895Z,102226.56
2023-01-28T10:46:36.493Z,102215.97
2023-01-28T10:49:25.374Z,102222.09
2023-01-28T10:51:52.310Z,102220.28
2023-01-28T10:54:29.247Z,102228.09
2023-01-28T10:57:18.158Z,102219.44
2023-01-28T10:59:45.855Z,102221.50
2023-01-28T11:02:33.407Z,102222.94
2023-01-28T11:05:21.155Z,102215.69
2023-01-28T11:07:49.983Z,102226.75
2023-01-28T11:10:37.620Z,102222.69
2023-01-28T11:13:14.859Z,102222.78
2023-01-28T11:15:59.260Z,102222.25
2023-01-28T11:18:40.713Z,102220.63
2023-01-28T11:21:31.294Z,102215.03
2023-01-28T11:24:15.471Z,102217.28
2023-01-28T11:26:52.859Z,102220.72
2023-01-28T11:29:33.843Z,102208.94
2023-01-28T11:32:01.494Z,102209.88
2023-01-28T11:34:35.203Z,102211.34
2023-01-28T11:37:16.170Z,102205.03
2023-01-28T11:39:43.369Z,102198.47
2023-01-28T11:42:22.137Z,102195.72
2023-01-28T11:44:50.154Z,102195.97
2023-01-28T11:47:35.697Z,102197.53
2023-01-28T11:50:25.449Z,102184.84
2023-01-28T11:53:08.116Z,102180.06
2023-01-28T11:56:41.369Z,102185.28
2023-01-28T11:59:32.551Z,102185.88
2023-01-28T12:02:40.736Z,102192.28
2023-01-28T12:05:51.416Z,102184.38
2023-01-28T12:08:34.556Z,102187.81
2023-01-28T12:12:10.473Z,102179.22
2023-01-28T12:15:14.753Z,102177.25
2023-01-28T12:18:31.047Z,102179.88
2023-01-28T12:21:10.587Z,102173.47
2023-01-28T12:24:39.302Z,102174.38
2023-01-28T12:27:57.764Z,102176.47
2023-01-28T12:30:53.035Z,102178.13
2023-01-28T12:33:50.079Z,102176.16
2023-01-28T12:36:49.741Z,102182.84
2023-01-28T12:39:51.844Z,102171.78
2023-01-28T12:42:51.925Z,102169.91
2023-01-28T12:45:38.531Z,102161.22
2023-01-28T12:48:24.797Z,102162.38
2023-01-28T12:51:07.314Z,102165.22
2023-01-28T12:53:55.756Z,102171.13
2023-01-28T12:56:50.829Z,102169.06
2023-01-28T12:59:43.298Z,102160.34
2023-01-28T13:02:13.072Z,102164.78
2023-01-28T13:05:17.014Z,102152.03
2023-01-28T13:08:09.043Z,102133.88
2023-01-28T13:10:43.874Z,102140.09
2023-01-28T13:13:32.670Z,102142.06
2023-01-28T13:16:01.438Z,102133.44
2023-01-28T13:18:45.660Z,102117.75
2023-01-28T13:21:40.181Z,102125.41
2023-01-28T13:24:14.585Z,102127.84
2023-01-28T13:26:56.002Z,102126.13
2023-01-28T13:29:26.029Z,102122.47
2023-01-28T13:31:57.391Z,102122.31
2023-01-28T13:34:37.967Z,102111.41
2023-01-28T13:37:34.313Z,102117.22
2023-01-28T13:40:13.480Z,102118.78
2023-01-28T13:42:41.854Z,102114.84
2023-01-28T13:45:16.990Z,102118.25
2023-01-28T13:48:38.452Z,102117.28
2023-01-28T13:51:22.769Z,102113.75
2023-01-28T13:54:20.988Z,102113.00
2023-01-28T13:57:00.328Z,102103.41
2023-01-28T14:00:00.717Z,102099.22
2023-01-28T14:02:53.351Z,102107.69
2023-01-28T14:05:42.783Z,102107.00
2023-01-28T14:08:43.972Z,102098.25
2023-01-28T14:11:27.317Z,102092.84
2023-01-28T14:14:52.736Z,102092.50
2023-01-28T14:17:48.259Z,102087.31
2023-01-28T14:20:37.489Z,102085.22
2023-01-28T14:23:21.929Z,102086.31
2023-01-28T14:26:23.564Z,102099.72
2023-01-28T14:29:25.026Z,102093.38
2023-01-28T14:31:53.902Z,102104.41
2023-01-28T14:34:36.654Z,102111.94
2023-01-28T14:37:13.874Z,102121.59
2023-01-28T14:40:06.812Z,102113.75
2023-01-28T14:42:48.057Z,102120.84
2023-01-28T14:45:49.154Z,102121.34
2023-01-28T14:48:38.178Z,102111.16
2023-01-28T14:51:57.993Z,102125.56
2023-01-28T14:55:00.143Z,102121.94
2023-01-28T14:57:39.600Z,102119.25
2023-01-28T15:00:26.833Z,102113.59
2023-01-28T15:02:54.147Z,102125.94
2023-01-28T15:05:27.427Z,102124.44
2023-01-28T15:07:56.013Z,102121.81
2023-01-28T15:10:35.597Z,102117.72
2023-01-28T15:13:15.354Z,102123.75
2023-01-28T15:15:52.046Z,102114.09
2023-01-28T15:18:24.761Z,102116.66
2023-01-28T15:20:55.184Z,102107.03
2023-01-28T15:23:41.976Z,102118.28
2023-01-28T15:26:18.958Z,102123.53
2023-01-28T15:28:48.287Z,102120.13
2023-01-28T15:31:28.858Z,102113.59
2023-01-28T15:34:17.809Z,102101.81
2023-01-28T15:36:45.091Z,102110.38
2023-01-28T15:39:22.561Z,102118.34
2023-01-28T15:42:08.052Z,102119.84
2023-01-28T15:44:42.273Z,102105.16
2023-01-28T15:47:34.138Z,102122.47
2023-01-28T15:50:15.194Z,102129.53
2023-01-28T15:52:45.270Z,102136.31
2023-01-28T15:55:46.133Z,102131.16
2023-01-28T15:58:31.471Z,102134.44
2023-01-28T16:01:10.962Z,102139.59
2023-01-28T16:03:43.442Z,102139.69
2023-01-28T16:06:23.230Z,102152.56
2023-01-28T16:09:01.327Z,102146.75
2023-01-28T16:11:41.403Z,102150.28
2023-01-28T16:14:31.534Z,102147.63
2023-01-28T16:16:58.593Z,102151.91
2023-01-28T16:19:33.858Z,102141.81
2023-01-28T16:22:01.889Z,102131.56
2023-01-28T16:24:36.286Z,102119.34
2023-01-28T16:27:19.860Z,102116.72
2023-01-28T16:29:46.793Z,102118.66
2023-01-28T16:32:39.497Z,102122.94
2023-01-28T16:35:29.791Z,102129.84
2023-01-28T16:38:00.142Z,102135.88
2023-01-28T16:40:27.241Z,102141.00
2023-01-28T16:42:55.841Z,102153.03
2023-01-28T16:45:25.325Z,102153.47
2023-01-28T16:47:53.412Z,102140.44
2023-01-28T16:50:22.087Z,102146.47
2023-01-28T16:52:53.880Z,102151.59
2023-01-28T16:55:22.734Z,102161.03
2023-01-28T16:57:54.560Z,102153.28
2023-01-28T17:00:27.683Z,102152.31
2023-01-28T17:02:55.073Z,102163.47
2023-01-28T17:05:26.789Z,102167.16
2023-01-28T17:07:56.318Z,102172.28
2023-01-28T17:10:23.205Z,102175.00
2023-01-28T17:12:50.179Z,102177.38
2023-01-28T17:15:18.449Z,102172.41
2023-01-28T17:17:49.479Z,102181.66
2023-01-28T17:20:17.497Z,102184.31
2023-01-28T17:22:44.539Z,102188.69
2023-01-28T17:25:12.281Z,102193.88
2023-01-28T17:27:40.021Z,102202.47
2023-01-28T17:30:08.450Z,102201.50
2023-01-28T17:32:35.392Z,102201.53
2023-01-28T17:35:02.549Z,102200.69
2023-01-28T17:37:29.567Z,102200.78
2023-01-28T17:39:56.614Z,102194.03
2023-01-28T17:42:23.631Z,102190.31
2023-01-28T17:44:50.588Z,102183.47
2023-01-28T17:47:18.052Z,102185.34
2023-01-28T17:49:44.983Z,102185.28
2023-01-28T17:52:12.103Z,102176.84
2023-01-28T17:54:39.348Z,102180.44
2023-01-28T17:57:06.283Z,102181.09
2023-01-28T17:59:33.260Z,102185.44
2023-01-28T18:02:00.239Z,102189.88
2023-01-28T18:04:27.312Z,102194.28
2023-01-28T18:06:54.308Z,102196.00
2023-01-28T18:09:21.292Z,102195.06
2023-01-28T18:11:51.281Z,102191.63
2023-01-28T18:14:18.209Z,102181.41
2023-01-28T18:16:45.106Z,102190.94
2023-01-28T18:19:12.055Z,102183.22
2023-01-28T18:21:56.967Z,102175.53
2023-01-28T18:24:28.849Z,102167.84
2023-01-28T18:26:59.756Z,102171.41
2023-01-28T18:29:29.451Z,102166.25
2023-01-28T18:31:59.488Z,102178.25
2023-01-28T18:34:29.086Z,102174.81
2023-01-28T18:36:57.416Z,102178.28
2023-01-28T18:39:30.258Z,102176.59
2023-01-28T18:41:58.760Z,102189.47
2023-01-28T18:44:32.713Z,102185.19
2023-01-28T18:46:59.651Z,102176.56
2023-01-28T18:49:26.655Z,102184.25
2023-01-28T18:51:53.970Z,102191.88
2023-01-28T18:54:21.015Z,102197.00
2023-01-28T18:56:49.435Z,102198.75
2023-01-28T18:59:16.675Z,102179.81
2023-01-28T19:01:44.400Z,102164.38
2023-01-28T19:04:11.631Z,102178.06
2023-01-28T19:06:38.633Z,102176.41
2023-01-28T19:09:07.075Z,102171.22
2023-01-28T19:11:35.315Z,102173.00
2023-01-28T19:14:02.582Z,102180.69
2023-01-28T19:16:30.607Z,102179.78
2023-01-28T19:19:00.654Z,102178.91
2023-01-28T19:21:30.722Z,102178.88
2023-01-28T19:24:02.791Z,102178.88
2023-01-28T19:26:31.194Z,102170.38
2023-01-28T19:29:01.634Z,102171.25
2023-01-28T19:31:29.105Z,102166.91
2023-01-28T19:33:59.926Z,102177.19
2023-01-28T19:36:31.167Z,102170.41
2023-01-28T19:39:00.774Z,102170.31
2023-01-28T19:41:29.246Z,102180.69
2023-01-28T19:43:57.478Z,102174.59
2023-01-28T19:46:25.421Z,102169.47
2023-01-28T19:48:53.067Z,102175.47
2023-01-28T19:51:21.003Z,102178.06
2023-01-28T19:53:52.153Z,102190.06
2023-01-28T19:56:22.506Z,102190.94
2023-01-28T19:58:49.953Z,102196.19
2023-01-28T20:01:23.751Z,102197.06
2023-01-28T20:03:55.053Z,102212.50
2023-01-28T20:06:24.535Z,102209.38
2023-01-28T20:08:54.926Z,102214.44
2023-01-28T20:11:23.307Z,102201.44
2023-01-28T20:13:51.889Z,102205.78
2023-01-28T20:16:31.974Z,102204.91
2023-01-28T20:19:12.732Z,102190.41
2023-01-28T20:21:39.766Z,102193.81
2023-01-28T20:24:07.646Z,102189.56
2023-01-28T20:26:37.468Z,102183.66
2023-01-28T20:29:15.027Z,102181.94
2023-01-28T20:31:42.979Z,102182.84
2023-01-28T20:34:19.567Z,102170.91
2023-01-28T20:36:47.053Z,102170.84
2023-01-28T20:39:14.732Z,102161.47
2023-01-28T20:41:41.714Z,102169.22
2023-01-28T20:44:08.652Z,102177.78
2023-01-28T20:46:36.635Z,102178.56
2023-01-28T20:49:08.037Z,102177.75
2023-01-28T20:51:36.146Z,102173.50
2023-01-28T20:54:03.508Z,102174.38
2023-01-28T20:56:31.223Z,102172.72
2023-01-28T20:59:03.416Z,102169.31
2023-01-28T21:01:35.292Z,102166.81
2023-01-28T21:04:06.144Z,102171.13
2023-01-28T21:06:36.490Z,102167.72
2023-01-28T21:09:05.579Z,102166.00
2023-01-28T21:11:32.672Z,102170.31
2023-01-28T21:13:59.651Z,102160.06
2023-01-28T21:16:26.923Z,102158.38
2023-01-28T21:18:53.873Z,102160.09
2023-01-28T21:21:26.096Z,102159.25
2023-01-28T21:23:57.799Z,102148.13
2023-01-28T21:26:25.847Z,102136.19
2023-01-28T21:28:52.767Z,102150.75
2023-01-28T21:31:27.726Z,102155.03
2023-01-28T21:33:58.729Z,102149.03
2023-01-28T21:36:31.762Z,102154.13
2023-01-28T21:39:00.938Z,102150.69
2023-01-28T21:41:28.273Z,102148.16
2023-01-28T21:43:57.575Z,102155.03
2023-01-28T21:46:29.570Z,102147.34
2023-01-28T21:49:07.569Z,102150.75
2023-01-28T21:51:45.821Z,102148.19
2023-01-28T21:54:17.286Z,102149.91
2023-01-28T21:56:50.537Z,102146.50
2023-01-28T21:59:30.655Z,102154.28
2023-01-28T22:02:02.800Z,102141.41
2023-01-28T22:04:40.150Z,102139.69
2023-01-28T22:07:11.652Z,102137.94
2023-01-28T22:09:39.983Z,102137.91
2023-01-28T22:12:08.097Z,102136.19
2023-01-28T22:14:37.274Z,102124.19
2023-01-28T22:17:11.033Z,102124.13
2023-01-28T22:19:39.044Z,102124.97
2023-01-28T22:22:06.979Z,102124.97
2023-01-28T22:24:34.174Z,102135.25
2023-01-28T22:27:01.295Z,102136.06
2023-01-28T22:29:28.324Z,102135.25
2023-01-28T22:31:55.428Z,102129.25
2023-01-28T22:34:23.386Z,102124.97
2023-01-28T22:36:51.563Z,102126.66
2023-01-28T22:39:19.304Z,102117.25
2023-01-28T22:41:46.979Z,102131.72
2023-01-28T22:44:14.916Z,102119.69
2023-01-28T22:46:42.289Z,102123.91
2023-01-28T22:49:11.896Z,102118.75
2023-01-28T22:51:39.003Z,102119.59
2023-01-28T22:54:06.036Z,102116.16
2023-01-28T22:56:33.033Z,102118.72
2023-01-28T22:59:03.654Z,102114.38
2023-01-28T23:01:31.046Z,102114.31
2023-01-28T23:03:58.480Z,102111.78
2023-01-28T23:06:27.437Z,102117.81
2023-01-28T23:08:56.268Z,102110.94
2023-01-28T23:11:27.963Z,102098.91
2023-01-28T23:14:20.979Z,102087.81
2023-01-28T23:17:07.674Z,102085.25
2023-01-28T23:19:53.959Z,102081.78
2023-01-28T23:22:51.730Z,102084.34
2023-01-28T23:25:20.323Z,102085.19
2023-01-28T23:27:47.283Z,102083.41
2023-01-28T23:30:15.709Z,102080.91
2023-01-28T23:32:50.043Z,102074.91
2023-01-28T23:35:19.220Z,102063.81
2023-01-28T23:37:48.148Z,102057.75
2023-01-28T23:40:16.932Z,102060.34
2023-01-28T23:42:50.266Z,102063.78
2023-01-28T23:45:18.397Z,102063.78
2023-01-28T23:47:45.572Z,102062.91
2023-01-28T23:50:12.831Z,102068.06
2023-01-28T23:52:39.880Z,102057.75
2023-01-28T23:55:07.986Z,102038.03
2023-01-28T23:57:36.496Z,102034.63
